sensor_id;sensor_type;location;lat;lon;timestamp;temperature;humidity
28837;DHT22;50669;50.982;11.022;2024-03-08T00:01:18;18.10;72.40
28837;DHT22;50669;50.982;11.022;2024-03-08T00:03:46;18.10;72.40
28837;DHT22;50669;50.982;11.022;2024-03-08T00:06:12;18.00;72.40
28837;DHT22;50669;50.982;11.022;2024-03-08T00:08:38;18.00;72.30
28837;DHT22;50669;50.982;11.022;2024-03-08T00:11:03;18.00;72.30
28837;DHT22;50669;50.982;11.022;2024-03-08T00:13:29;18.00;72.40
28837;DHT22;50669;50.982;11.022;2024-03-08T00:15:55;18.00;72.30
28837;DHT22;50669;50.982;11.022;2024-03-08T00:18:23;18.00;72.40
28837;DHT22;50669;50.982;11.022;2024-03-08T00:20:48;18.00;72.30
28837;DHT22;50669;50.982;11.022;2024-03-08T00:23:14;18.00;72.30
28837;DHT22;50669;50.982;11.022;2024-03-08T00:25:41;18.00;72.40
28837;DHT22;50669;50.982;11.022;2024-03-08T00:28:06;18.00;72.40
28837;DHT22;50669;50.982;11.022;2024-03-08T00:30:32;18.00;72.30
28837;DHT22;50669;50.982;11.022;2024-03-08T00:33:00;18.00;72.30
28837;DHT22;50669;50.982;11.022;2024-03-08T00:35:26;18.00;72.30
28837;DHT22;50669;50.982;11.022;2024-03-08T00:37:56;18.00;72.40
28837;DHT22;50669;50.982;11.022;2024-03-08T00:40:22;18.00;72.40
28837;DHT22;50669;50.982;11.022;2024-03-08T00:42:48;18.00;72.40
28837;DHT22;50669;50.982;11.022;2024-03-08T00:45:16;18.00;72.40
28837;DHT22;50669;50.982;11.022;2024-03-08T00:47:43;18.00;72.30
28837;DHT22;50669;50.982;11.022;2024-03-08T00:50:12;17.90;72.30
28837;DHT22;50669;50.982;11.022;2024-03-08T00:52:38;17.90;72.30
28837;DHT22;50669;50.982;11.022;2024-03-08T00:55:04;18.00;72.40
28837;DHT22;50669;50.982;11.022;2024-03-08T00:57:30;17.90;72.30
28837;DHT22;50669;50.982;11.022;2024-03-08T00:59:55;17.90;72.30
28837;DHT22;50669;50.982;11.022;2024-03-08T01:02:21;17.90;73.10
28837;DHT22;50669;50.982;11.022;2024-03-08T01:04:50;17.90;72.30
28837;DHT22;50669;50.982;11.022;2024-03-08T01:07:16;17.90;72.30
28837;DHT22;50669;50.982;11.022;2024-03-08T01:09:42;17.90;72.30
28837;DHT22;50669;50.982;11.022;2024-03-08T01:12:09;17.90;72.30
28837;DHT22;50669;50.982;11.022;2024-03-08T01:14:36;17.90;72.30
28837;DHT22;50669;50.982;11.022;2024-03-08T01:17:04;17.90;72.30
28837;DHT22;50669;50.982;11.022;2024-03-08T01:19:29;17.90;72.30
28837;DHT22;50669;50.982;11.022;2024-03-08T01:21:57;17.90;72.30
28837;DHT22;50669;50.982;11.022;2024-03-08T01:24:23;17.90;72.30
28837;DHT22;50669;50.982;11.022;2024-03-08T01:26:48;17.90;72.30
28837;DHT22;50669;50.982;11.022;2024-03-08T01:29:14;17.90;72.30
28837;DHT22;50669;50.982;11.022;2024-03-08T01:31:40;17.90;72.30
28837;DHT22;50669;50.982;11.022;2024-03-08T01:34:05;17.90;72.30
28837;DHT22;50669;50.982;11.022;2024-03-08T01:36:31;17.90;72.30
28837;DHT22;50669;50.982;11.022;2024-03-08T01:38:57;17.90;72.30
28837;DHT22;50669;50.982;11.022;2024-03-08T01:41:23;17.90;72.30
28837;DHT22;50669;50.982;11.022;2024-03-08T01:43:51;17.80;72.30
28837;DHT22;50669;50.982;11.022;2024-03-08T01:46:19;17.80;72.30
28837;DHT22;50669;50.982;11.022;2024-03-08T01:48:47;17.90;72.30
28837;DHT22;50669;50.982;11.022;2024-03-08T01:51:16;17.90;72.30
28837;DHT22;50669;50.982;11.022;2024-03-08T01:53:44;17.80;72.20
28837;DHT22;50669;50.982;11.022;2024-03-08T01:56:14;17.90;72.30
28837;DHT22;50669;50.982;11.022;2024-03-08T01:58:43;17.80;72.20
28837;DHT22;50669;50.982;11.022;2024-03-08T02:01:11;17.80;72.30
28837;DHT22;50669;50.982;11.022;2024-03-08T02:03:38;17.80;72.30
28837;DHT22;50669;50.982;11.022;2024-03-08T02:06:06;17.80;72.30
28837;DHT22;50669;50.982;11.022;2024-03-08T02:08:38;17.80;72.30
28837;DHT22;50669;50.982;11.022;2024-03-08T02:11:04;17.80;72.30
28837;DHT22;50669;50.982;11.022;2024-03-08T02:13:30;17.80;72.30
28837;DHT22;50669;50.982;11.022;2024-03-08T02:15:58;17.80;72.30
28837;DHT22;50669;50.982;11.022;2024-03-08T02:18:30;17.80;72.30
28837;DHT22;50669;50.982;11.022;2024-03-08T02:20:59;17.80;72.30
28837;DHT22;50669;50.982;11.022;2024-03-08T02:23:25;17.80;72.30
28837;DHT22;50669;50.982;11.022;2024-03-08T02:25:51;17.80;72.30
28837;DHT22;50669;50.982;11.022;2024-03-08T02:28:20;17.80;72.30
28837;DHT22;50669;50.982;11.022;2024-03-08T02:30:47;17.80;72.30
28837;DHT22;50669;50.982;11.022;2024-03-08T02:33:19;17.80;72.30
28837;DHT22;50669;50.982;11.022;2024-03-08T02:35:45;17.80;72.30
28837;DHT22;50669;50.982;11.022;2024-03-08T02:38:14;17.80;72.30
28837;DHT22;50669;50.982;11.022;2024-03-08T02:40:47;17.80;72.30
28837;DHT22;50669;50.982;11.022;2024-03-08T02:43:16;17.70;72.30
28837;DHT22;50669;50.982;11.022;2024-03-08T02:45:43;17.70;72.30
28837;DHT22;50669;50.982;11.022;2024-03-08T02:48:12;17.70;72.20
28837;DHT22;50669;50.982;11.022;2024-03-08T02:50:38;17.70;72.20
28837;DHT22;50669;50.982;11.022;2024-03-08T02:53:11;17.70;72.30
28837;DHT22;50669;50.982;11.022;2024-03-08T02:55:37;17.70;72.30
28837;DHT22;50669;50.982;11.022;2024-03-08T02:58:05;17.70;72.20
28837;DHT22;50669;50.982;11.022;2024-03-08T03:00:34;17.70;72.20
28837;DHT22;50669;50.982;11.022;2024-03-08T03:02:59;17.80;72.30
28837;DHT22;50669;50.982;11.022;2024-03-08T03:05:28;17.70;72.30
28837;DHT22;50669;50.982;11.022;2024-03-08T03:07:55;17.70;72.20
28837;DHT22;50669;50.982;11.022;2024-03-08T03:10:21;17.70;72.30
28837;DHT22;50669;50.982;11.022;2024-03-08T03:12:49;17.70;72.30
28837;DHT22;50669;50.982;11.022;2024-03-08T03:15:17;17.70;72.30
28837;DHT22;50669;50.982;11.022;2024-03-08T03:17:50;17.70;72.30
28837;DHT22;50669;50.982;11.022;2024-03-08T03:20:19;17.70;72.30
28837;DHT22;50669;50.982;11.022;2024-03-08T03:22:58;17.70;72.30
28837;DHT22;50669;50.982;11.022;2024-03-08T03:25:26;17.70;72.30
28837;DHT22;50669;50.982;11.022;2024-03-08T03:27:59;17.70;72.20
28837;DHT22;50669;50.982;11.022;2024-03-08T03:30:25;17.70;72.30
28837;DHT22;50669;50.982;11.022;2024-03-08T03:32:54;17.70;72.30
28837;DHT22;50669;50.982;11.022;2024-03-08T03:35:24;17.70;72.30
28837;DHT22;50669;50.982;11.022;2024-03-08T03:37:50;17.70;72.20
28837;DHT22;50669;50.982;11.022;2024-03-08T03:40:36;17.70;72.30
28837;DHT22;50669;50.982;11.022;2024-03-08T03:43:03;17.70;72.30
28837;DHT22;50669;50.982;11.022;2024-03-08T03:45:31;17.70;72.30
28837;DHT22;50669;50.982;11.022;2024-03-08T03:48:03;17.60;72.20
28837;DHT22;50669;50.982;11.022;2024-03-08T03:50:32;17.60;72.20
28837;DHT22;50669;50.982;11.022;2024-03-08T03:53:01;17.70;72.30
28837;DHT22;50669;50.982;11.022;2024-03-08T03:55:28;17.60;72.20
28837;DHT22;50669;50.982;11.022;2024-03-08T03:57:54;17.60;72.20
28837;DHT22;50669;50.982;11.022;2024-03-08T04:00:20;17.60;72.20
28837;DHT22;50669;50.982;11.022;2024-03-08T04:02:45;17.60;72.20
28837;DHT22;50669;50.982;11.022;2024-03-08T04:05:12;17.60;72.20
28837;DHT22;50669;50.982;11.022;2024-03-08T04:07:39;17.60;72.20
28837;DHT22;50669;50.982;11.022;2024-03-08T04:10:08;17.60;72.30
28837;DHT22;50669;50.982;11.022;2024-03-08T04:12:40;17.60;72.20
28837;DHT22;50669;50.982;11.022;2024-03-08T04:15:06;17.60;72.20
28837;DHT22;50669;50.982;11.022;2024-03-08T04:17:33;17.60;72.10
28837;DHT22;50669;50.982;11.022;2024-03-08T04:20:03;17.60;72.20
28837;DHT22;50669;50.982;11.022;2024-03-08T04:22:38;17.60;72.20
28837;DHT22;50669;50.982;11.022;2024-03-08T04:25:07;17.60;72.10
28837;DHT22;50669;50.982;11.022;2024-03-08T04:27:33;17.60;72.20
28837;DHT22;50669;50.982;11.022;2024-03-08T04:30:01;17.60;72.20
28837;DHT22;50669;50.982;11.022;2024-03-08T04:32:29;17.60;72.20
28837;DHT22;50669;50.982;11.022;2024-03-08T04:34:57;17.60;72.20
28837;DHT22;50669;50.982;11.022;2024-03-08T04:37:23;17.60;72.10
28837;DHT22;50669;50.982;11.022;2024-03-08T04:39:50;17.60;72.10
28837;DHT22;50669;50.982;11.022;2024-03-08T04:42:16;17.60;72.10
28837;DHT22;50669;50.982;11.022;2024-03-08T04:44:43;17.60;72.20
28837;DHT22;50669;50.982;11.022;2024-03-08T04:47:09;17.60;72.20
28837;DHT22;50669;50.982;11.022;2024-03-08T04:49:37;17.60;72.10
28837;DHT22;50669;50.982;11.022;2024-03-08T04:52:05;17.50;72.00
28837;DHT22;50669;50.982;11.022;2024-03-08T04:54:34;17.50;72.10
28837;DHT22;50669;50.982;11.022;2024-03-08T04:57:00;17.50;72.10
28837;DHT22;50669;50.982;11.022;2024-03-08T04:59:26;17.50;72.10
28837;DHT22;50669;50.982;11.022;2024-03-08T05:01:53;17.50;72.10
28837;DHT22;50669;50.982;11.022;2024-03-08T05:04:18;17.50;72.10
28837;DHT22;50669;50.982;11.022;2024-03-08T05:06:47;17.50;72.10
28837;DHT22;50669;50.982;11.022;2024-03-08T05:09:12;17.50;72.10
28837;DHT22;50669;50.982;11.022;2024-03-08T05:11:42;17.50;72.10
28837;DHT22;50669;50.982;11.022;2024-03-08T05:14:12;17.50;72.10
28837;DHT22;50669;50.982;11.022;2024-03-08T05:16:48;17.50;72.10
28837;DHT22;50669;50.982;11.022;2024-03-08T05:19:19;17.50;72.10
28837;DHT22;50669;50.982;11.022;2024-03-08T05:21:49;17.50;72.10
28837;DHT22;50669;50.982;11.022;2024-03-08T05:24:15;17.50;72.10
28837;DHT22;50669;50.982;11.022;2024-03-08T05:26:44;17.50;72.00
28837;DHT22;50669;50.982;11.022;2024-03-08T05:29:10;17.50;72.10
28837;DHT22;50669;50.982;11.022;2024-03-08T05:31:52;17.50;72.10
28837;DHT22;50669;50.982;11.022;2024-03-08T05:34:18;17.50;72.00
28837;DHT22;50669;50.982;11.022;2024-03-08T05:36:45;17.50;72.10
28837;DHT22;50669;50.982;11.022;2024-03-08T05:39:12;17.50;72.00
28837;DHT22;50669;50.982;11.022;2024-03-08T05:41:41;17.40;72.00
28837;DHT22;50669;50.982;11.022;2024-03-08T05:44:10;17.50;72.10
28837;DHT22;50669;50.982;11.022;2024-03-08T05:46:37;17.40;72.00
28837;DHT22;50669;50.982;11.022;2024-03-08T05:49:06;17.50;72.10
28837;DHT22;50669;50.982;11.022;2024-03-08T05:51:33;17.50;72.00
28837;DHT22;50669;50.982;11.022;2024-03-08T05:54:09;17.50;72.00
28837;DHT22;50669;50.982;11.022;2024-03-08T05:56:39;17.40;72.00
28837;DHT22;50669;50.982;11.022;2024-03-08T05:59:07;17.40;72.00
28837;DHT22;50669;50.982;11.022;2024-03-08T06:01:36;17.40;72.00
28837;DHT22;50669;50.982;11.022;2024-03-08T06:04:06;17.40;72.00
28837;DHT22;50669;50.982;11.022;2024-03-08T06:06:32;17.40;72.00
28837;DHT22;50669;50.982;11.022;2024-03-08T06:09:02;17.40;72.00
28837;DHT22;50669;50.982;11.022;2024-03-08T06:11:37;17.40;71.90
28837;DHT22;50669;50.982;11.022;2024-03-08T06:14:03;17.40;71.90
28837;DHT22;50669;50.982;11.022;2024-03-08T06:16:29;17.40;71.90
28837;DHT22;50669;50.982;11.022;2024-03-08T06:18:57;17.40;72.00
28837;DHT22;50669;50.982;11.022;2024-03-08T06:21:26;17.40;71.90
28837;DHT22;50669;50.982;11.022;2024-03-08T06:23:57;17.40;71.90
28837;DHT22;50669;50.982;11.022;2024-03-08T06:26:25;17.40;71.80
28837;DHT22;50669;50.982;11.022;2024-03-08T06:28:53;17.40;71.90
28837;DHT22;50669;50.982;11.022;2024-03-08T06:31:23;17.40;71.90
28837;DHT22;50669;50.982;11.022;2024-03-08T06:33:49;17.40;71.90
28837;DHT22;50669;50.982;11.022;2024-03-08T06:36:18;17.40;71.90
28837;DHT22;50669;50.982;11.022;2024-03-08T06:38:45;17.40;71.90
28837;DHT22;50669;50.982;11.022;2024-03-08T06:41:14;17.40;71.80
28837;DHT22;50669;50.982;11.022;2024-03-08T06:43:48;17.40;71.90
28837;DHT22;50669;50.982;11.022;2024-03-08T06:46:17;17.40;71.80
28837;DHT22;50669;50.982;11.022;2024-03-08T06:48:45;17.40;71.90
28837;DHT22;50669;50.982;11.022;2024-03-08T06:51:11;17.40;71.80
28837;DHT22;50669;50.982;11.022;2024-03-08T06:53:37;17.40;71.80
28837;DHT22;50669;50.982;11.022;2024-03-08T06:56:04;17.40;71.80
28837;DHT22;50669;50.982;11.022;2024-03-08T06:58:29;17.40;71.80
28837;DHT22;50669;50.982;11.022;2024-03-08T07:00:58;17.40;71.80
28837;DHT22;50669;50.982;11.022;2024-03-08T07:03:25;17.40;71.80
28837;DHT22;50669;50.982;11.022;2024-03-08T07:05:52;17.40;71.70
28837;DHT22;50669;50.982;11.022;2024-03-08T07:08:18;17.40;71.80
28837;DHT22;50669;50.982;11.022;2024-03-08T07:10:44;17.40;71.80
28837;DHT22;50669;50.982;11.022;2024-03-08T07:13:11;17.40;71.80
28837;DHT22;50669;50.982;11.022;2024-03-08T07:15:39;17.40;71.80
28837;DHT22;50669;50.982;11.022;2024-03-08T07:18:08;17.40;71.70
28837;DHT22;50669;50.982;11.022;2024-03-08T07:20:34;17.40;71.70
28837;DHT22;50669;50.982;11.022;2024-03-08T07:23:00;17.40;71.70
28837;DHT22;50669;50.982;11.022;2024-03-08T07:25:26;17.40;71.70
28837;DHT22;50669;50.982;11.022;2024-03-08T07:27:55;17.40;71.70
28837;DHT22;50669;50.982;11.022;2024-03-08T07:30:25;17.40;71.70
28837;DHT22;50669;50.982;11.022;2024-03-08T07:33:12;17.40;71.60
28837;DHT22;50669;50.982;11.022;2024-03-08T07:35:38;17.30;71.60
28837;DHT22;50669;50.982;11.022;2024-03-08T07:38:04;17.30;71.70
28837;DHT22;50669;50.982;11.022;2024-03-08T07:40:31;17.30;71.70
28837;DHT22;50669;50.982;11.022;2024-03-08T07:42:59;17.40;71.70
28837;DHT22;50669;50.982;11.022;2024-03-08T07:45:27;17.30;71.50
28837;DHT22;50669;50.982;11.022;2024-03-08T07:47:53;17.40;71.70
28837;DHT22;50669;50.982;11.022;2024-03-08T07:50:19;17.30;71.60
28837;DHT22;50669;50.982;11.022;2024-03-08T07:52:48;17.30;71.60
28837;DHT22;50669;50.982;11.022;2024-03-08T07:55:13;17.30;71.60
28837;DHT22;50669;50.982;11.022;2024-03-08T07:57:40;17.30;71.60
28837;DHT22;50669;50.982;11.022;2024-03-08T08:00:06;17.40;71.60
28837;DHT22;50669;50.982;11.022;2024-03-08T08:02:36;17.30;71.40
28837;DHT22;50669;50.982;11.022;2024-03-08T08:05:02;17.30;71.40
28837;DHT22;50669;50.982;11.022;2024-03-08T08:07:29;17.40;71.50
28837;DHT22;50669;50.982;11.022;2024-03-08T08:09:54;17.30;71.50
28837;DHT22;50669;50.982;11.022;2024-03-08T08:12:22;17.30;71.40
28837;DHT22;50669;50.982;11.022;2024-03-08T08:14:50;17.30;71.30
28837;DHT22;50669;50.982;11.022;2024-03-08T08:17:16;17.30;71.40
28837;DHT22;50669;50.982;11.022;2024-03-08T08:19:42;17.40;71.40
28837;DHT22;50669;50.982;11.022;2024-03-08T08:22:12;17.40;71.50
28837;DHT22;50669;50.982;11.022;2024-03-08T08:24:37;17.40;71.50
28837;DHT22;50669;50.982;11.022;2024-03-08T08:27:06;17.30;71.40
28837;DHT22;50669;50.982;11.022;2024-03-08T08:29:32;17.40;71.40
28837;DHT22;50669;50.982;11.022;2024-03-08T08:32:00;17.30;71.30
28837;DHT22;50669;50.982;11.022;2024-03-08T08:34:26;17.40;71.30
28837;DHT22;50669;50.982;11.022;2024-03-08T08:36:52;17.30;71.30
28837;DHT22;50669;50.982;11.022;2024-03-08T08:39:21;17.30;71.30
28837;DHT22;50669;50.982;11.022;2024-03-08T08:41:48;17.40;71.40
28837;DHT22;50669;50.982;11.022;2024-03-08T08:44:16;17.40;71.40
28837;DHT22;50669;50.982;11.022;2024-03-08T08:46:42;17.30;71.30
28837;DHT22;50669;50.982;11.022;2024-03-08T08:49:10;17.40;71.30
28837;DHT22;50669;50.982;11.022;2024-03-08T08:51:36;17.30;71.30
28837;DHT22;50669;50.982;11.022;2024-03-08T08:54:02;17.40;71.30
28837;DHT22;50669;50.982;11.022;2024-03-08T08:56:28;17.40;71.30
28837;DHT22;50669;50.982;11.022;2024-03-08T08:58:59;17.40;71.30
28837;DHT22;50669;50.982;11.022;2024-03-08T09:01:24;17.40;71.20
28837;DHT22;50669;50.982;11.022;2024-03-08T09:03:50;17.40;71.20
28837;DHT22;50669;50.982;11.022;2024-03-08T09:06:16;17.40;71.20
28837;DHT22;50669;50.982;11.022;2024-03-08T09:08:42;17.40;71.20
28837;DHT22;50669;50.982;11.022;2024-03-08T09:11:09;17.40;71.20
28837;DHT22;50669;50.982;11.022;2024-03-08T09:13:35;17.40;71.20
28837;DHT22;50669;50.982;11.022;2024-03-08T09:16:02;17.30;71.10
28837;DHT22;50669;50.982;11.022;2024-03-08T09:18:30;17.40;71.20
28837;DHT22;50669;50.982;11.022;2024-03-08T09:20:57;17.40;71.20
28837;DHT22;50669;50.982;11.022;2024-03-08T09:23:23;17.40;71.20
28837;DHT22;50669;50.982;11.022;2024-03-08T09:25:51;17.40;71.10
28837;DHT22;50669;50.982;11.022;2024-03-08T09:28:17;17.40;71.10
28837;DHT22;50669;50.982;11.022;2024-03-08T09:30:42;17.40;71.10
28837;DHT22;50669;50.982;11.022;2024-03-08T09:33:10;17.30;71.00
28837;DHT22;50669;50.982;11.022;2024-03-08T09:35:37;17.40;71.10
28837;DHT22;50669;50.982;11.022;2024-03-08T09:38:03;17.40;71.00
28837;DHT22;50669;50.982;11.022;2024-03-08T09:40:30;17.40;71.00
28837;DHT22;50669;50.982;11.022;2024-03-08T09:42:56;17.40;71.00
28837;DHT22;50669;50.982;11.022;2024-03-08T09:45:27;17.40;71.00
28837;DHT22;50669;50.982;11.022;2024-03-08T09:47:55;17.40;71.10
28837;DHT22;50669;50.982;11.022;2024-03-08T09:50:21;17.40;71.00
28837;DHT22;50669;50.982;11.022;2024-03-08T09:52:48;17.40;70.90
28837;DHT22;50669;50.982;11.022;2024-03-08T09:55:16;17.40;71.00
28837;DHT22;50669;50.982;11.022;2024-03-08T09:57:43;17.40;70.90
28837;DHT22;50669;50.982;11.022;2024-03-08T10:00:27;17.40;70.90
28837;DHT22;50669;50.982;11.022;2024-03-08T10:03:01;17.40;70.90
28837;DHT22;50669;50.982;11.022;2024-03-08T10:05:29;17.40;70.90
28837;DHT22;50669;50.982;11.022;2024-03-08T10:07:55;17.40;70.90
28837;DHT22;50669;50.982;11.022;2024-03-08T10:10:21;17.40;70.90
28837;DHT22;50669;50.982;11.022;2024-03-08T10:12:48;17.40;70.90
28837;DHT22;50669;50.982;11.022;2024-03-08T10:15:16;17.40;70.90
28837;DHT22;50669;50.982;11.022;2024-03-08T10:17:48;17.40;70.90
28837;DHT22;50669;50.982;11.022;2024-03-08T10:20:17;17.40;70.90
28837;DHT22;50669;50.982;11.022;2024-03-08T10:22:44;17.40;70.80
28837;DHT22;50669;50.982;11.022;2024-03-08T10:25:13;17.40;70.80
28837;DHT22;50669;50.982;11.022;2024-03-08T10:27:39;17.40;70.70
28837;DHT22;50669;50.982;11.022;2024-03-08T10:30:14;17.40;70.80
28837;DHT22;50669;50.982;11.022;2024-03-08T10:32:40;17.40;70.80
28837;DHT22;50669;50.982;11.022;2024-03-08T10:35:10;17.40;70.70
28837;DHT22;50669;50.982;11.022;2024-03-08T10:37:45;17.40;70.60
28837;DHT22;50669;50.982;11.022;2024-03-08T10:40:17;17.40;70.70
28837;DHT22;50669;50.982;11.022;2024-03-08T10:42:57;17.40;70.70
28837;DHT22;50669;50.982;11.022;2024-03-08T10:50:41;17.40;70.70
28837;DHT22;50669;50.982;11.022;2024-03-08T10:53:11;17.40;70.60
28837;DHT22;50669;50.982;11.022;2024-03-08T10:55:40;17.40;70.60
28837;DHT22;50669;50.982;11.022;2024-03-08T10:58:11;17.40;70.50
28837;DHT22;50669;50.982;11.022;2024-03-08T11:00:37;17.40;70.60
28837;DHT22;50669;50.982;11.022;2024-03-08T11:03:07;17.50;70.60
28837;DHT22;50669;50.982;11.022;2024-03-08T11:05:41;17.50;70.60
28837;DHT22;50669;50.982;11.022;2024-03-08T11:08:18;17.50;70.60
28837;DHT22;50669;50.982;11.022;2024-03-08T11:10:51;17.50;70.60
28837;DHT22;50669;50.982;11.022;2024-03-08T11:13:38;17.50;70.60
28837;DHT22;50669;50.982;11.022;2024-03-08T11:16:50;17.50;70.50
28837;DHT22;50669;50.982;11.022;2024-03-08T11:19:05;17.50;70.60
28837;DHT22;50669;50.982;11.022;2024-03-08T11:21:32;17.50;70.50
28837;DHT22;50669;50.982;11.022;2024-03-08T11:24:06;17.50;70.50
28837;DHT22;50669;50.982;11.022;2024-03-08T11:26:33;17.50;70.40
28837;DHT22;50669;50.982;11.022;2024-03-08T11:32:03;17.50;70.30
28837;DHT22;50669;50.982;11.022;2024-03-08T11:34:29;17.60;70.40
28837;DHT22;50669;50.982;11.022;2024-03-08T11:36:56;17.60;70.30
28837;DHT22;50669;50.982;11.022;2024-03-08T11:39:22;17.60;70.20
28837;DHT22;50669;50.982;11.022;2024-03-08T11:41:49;17.70;70.10
28837;DHT22;50669;50.982;11.022;2024-03-08T11:44:17;17.70;70.00
28837;DHT22;50669;50.982;11.022;2024-03-08T11:46:43;17.70;70.00
28837;DHT22;50669;50.982;11.022;2024-03-08T11:49:13;17.80;69.90
28837;DHT22;50669;50.982;11.022;2024-03-08T11:51:43;17.80;69.80
28837;DHT22;50669;50.982;11.022;2024-03-08T11:54:12;17.80;69.80
28837;DHT22;50669;50.982;11.022;2024-03-08T11:56:44;17.90;69.70
28837;DHT22;50669;50.982;11.022;2024-03-08T11:59:12;17.90;69.60
28837;DHT22;50669;50.982;11.022;2024-03-08T12:01:41;17.90;69.50
28837;DHT22;50669;50.982;11.022;2024-03-08T12:04:12;17.90;69.30
28837;DHT22;50669;50.982;11.022;2024-03-08T12:06:39;18.00;69.40
28837;DHT22;50669;50.982;11.022;2024-03-08T12:09:09;18.00;69.30
28837;DHT22;50669;50.982;11.022;2024-03-08T12:11:38;18.10;69.30
28837;DHT22;50669;50.982;11.022;2024-03-08T12:14:06;18.20;69.10
28837;DHT22;50669;50.982;11.022;2024-03-08T12:16:36;18.30;69.00
28837;DHT22;50669;50.982;11.022;2024-03-08T12:19:05;18.30;68.70
28837;DHT22;50669;50.982;11.022;2024-03-08T12:21:35;18.40;68.90
28837;DHT22;50669;50.982;11.022;2024-03-08T12:24:03;18.50;68.40
28837;DHT22;50669;50.982;11.022;2024-03-08T12:26:29;18.60;68.20
28837;DHT22;50669;50.982;11.022;2024-03-08T12:31:40;18.70;67.90
28837;DHT22;50669;50.982;11.022;2024-03-08T12:34:10;18.80;67.80
28837;DHT22;50669;50.982;11.022;2024-03-08T12:36:38;18.80;67.70
28837;DHT22;50669;50.982;11.022;2024-03-08T12:39:12;18.90;67.60
28837;DHT22;50669;50.982;11.022;2024-03-08T12:41:46;18.90;67.50
28837;DHT22;50669;50.982;11.022;2024-03-08T12:44:14;19.00;67.40
28837;DHT22;50669;50.982;11.022;2024-03-08T12:46:40;19.00;67.20
28837;DHT22;50669;50.982;11.022;2024-03-08T12:49:12;19.10;67.20
28837;DHT22;50669;50.982;11.022;2024-03-08T12:51:43;19.10;67.00
28837;DHT22;50669;50.982;11.022;2024-03-08T12:54:09;19.20;67.00
28837;DHT22;50669;50.982;11.022;2024-03-08T12:56:36;19.20;66.90
28837;DHT22;50669;50.982;11.022;2024-03-08T12:59:03;19.30;66.80
28837;DHT22;50669;50.982;11.022;2024-03-08T13:01:30;19.30;66.70
28837;DHT22;50669;50.982;11.022;2024-03-08T13:03:58;19.30;66.70
28837;DHT22;50669;50.982;11.022;2024-03-08T13:06:24;19.30;66.60
28837;DHT22;50669;50.982;11.022;2024-03-08T13:08:53;19.30;66.60
28837;DHT22;50669;50.982;11.022;2024-03-08T13:11:19;19.30;66.50
28837;DHT22;50669;50.982;11.022;2024-03-08T13:13:48;19.40;66.60
28837;DHT22;50669;50.982;11.022;2024-03-08T13:16:17;19.40;66.60
28837;DHT22;50669;50.982;11.022;2024-03-08T13:18:45;19.40;66.60
28837;DHT22;50669;50.982;11.022;2024-03-08T13:21:11;19.30;66.60
28837;DHT22;50669;50.982;11.022;2024-03-08T13:23:41;19.30;66.80
28837;DHT22;50669;50.982;11.022;2024-03-08T13:26:15;19.20;66.90
28837;DHT22;50669;50.982;11.022;2024-03-08T13:28:45;19.20;66.90
28837;DHT22;50669;50.982;11.022;2024-03-08T13:31:11;19.20;67.20
28837;DHT22;50669;50.982;11.022;2024-03-08T13:33:40;19.10;67.20
28837;DHT22;50669;50.982;11.022;2024-03-08T13:36:13;19.10;67.30
28837;DHT22;50669;50.982;11.022;2024-03-08T13:38:47;19.10;67.40
28837;DHT22;50669;50.982;11.022;2024-03-08T13:41:14;19.10;67.50
28837;DHT22;50669;50.982;11.022;2024-03-08T13:43:42;19.10;67.40
28837;DHT22;50669;50.982;11.022;2024-03-08T13:46:08;19.20;67.30
28837;DHT22;50669;50.982;11.022;2024-03-08T13:48:36;19.20;67.30
28837;DHT22;50669;50.982;11.022;2024-03-08T13:51:07;19.20;67.30
28837;DHT22;50669;50.982;11.022;2024-03-08T13:53:33;19.20;67.40
28837;DHT22;50669;50.982;11.022;2024-03-08T13:56:03;19.20;67.40
28837;DHT22;50669;50.982;11.022;2024-03-08T13:58:30;19.10;67.40
28837;DHT22;50669;50.982;11.022;2024-03-08T14:00:56;19.10;67.40
28837;DHT22;50669;50.982;11.022;2024-03-08T14:03:22;19.10;67.50
28837;DHT22;50669;50.982;11.022;2024-03-08T14:05:49;19.10;67.50
28837;DHT22;50669;50.982;11.022;2024-03-08T14:08:15;19.10;67.50
28837;DHT22;50669;50.982;11.022;2024-03-08T14:10:43;19.10;68.20
28837;DHT22;50669;50.982;11.022;2024-03-08T14:13:12;19.10;67.50
28837;DHT22;50669;50.982;11.022;2024-03-08T14:15:37;19.10;67.60
28837;DHT22;50669;50.982;11.022;2024-03-08T14:18:07;19.10;67.50
28837;DHT22;50669;50.982;11.022;2024-03-08T14:20:33;19.10;67.60
28837;DHT22;50669;50.982;11.022;2024-03-08T14:23:01;19.10;67.70
28837;DHT22;50669;50.982;11.022;2024-03-08T14:25:29;19.00;67.70
28837;DHT22;50669;50.982;11.022;2024-03-08T14:27:55;19.00;67.70
28837;DHT22;50669;50.982;11.022;2024-03-08T14:30:24;19.00;67.70
28837;DHT22;50669;50.982;11.022;2024-03-08T14:33:03;19.00;67.80
28837;DHT22;50669;50.982;11.022;2024-03-08T14:35:31;18.90;67.90
28837;DHT22;50669;50.982;11.022;2024-03-08T14:38:02;18.90;67.90
28837;DHT22;50669;50.982;11.022;2024-03-08T14:40:28;18.90;67.90
28837;DHT22;50669;50.982;11.022;2024-03-08T14:42:57;18.90;67.90
28837;DHT22;50669;50.982;11.022;2024-03-08T14:45:23;18.90;67.90
28837;DHT22;50669;50.982;11.022;2024-03-08T14:47:50;18.90;68.00
28837;DHT22;50669;50.982;11.022;2024-03-08T14:50:19;18.80;68.00
28837;DHT22;50669;50.982;11.022;2024-03-08T14:52:45;18.90;68.10
28837;DHT22;50669;50.982;11.022;2024-03-08T14:55:15;18.80;68.00
28837;DHT22;50669;50.982;11.022;2024-03-08T14:57:43;18.80;68.00
28837;DHT22;50669;50.982;11.022;2024-03-08T15:00:11;18.80;68.10
28837;DHT22;50669;50.982;11.022;2024-03-08T15:02:53;18.80;68.00
28837;DHT22;50669;50.982;11.022;2024-03-08T15:05:19;18.80;68.10
28837;DHT22;50669;50.982;11.022;2024-03-08T15:07:47;18.80;68.10
28837;DHT22;50669;50.982;11.022;2024-03-08T15:10:16;18.80;68.20
28837;DHT22;50669;50.982;11.022;2024-03-08T15:12:48;18.80;68.20
28837;DHT22;50669;50.982;11.022;2024-03-08T15:15:14;18.70;68.20
28837;DHT22;50669;50.982;11.022;2024-03-08T15:17:44;18.70;68.10
28837;DHT22;50669;50.982;11.022;2024-03-08T15:20:15;18.80;68.30
28837;DHT22;50669;50.982;11.022;2024-03-08T15:22:50;18.70;68.20
28837;DHT22;50669;50.982;11.022;2024-03-08T15:25:20;18.70;68.20
28837;DHT22;50669;50.982;11.022;2024-03-08T15:27:52;18.70;69.10
28837;DHT22;50669;50.982;11.022;2024-03-08T15:30:19;18.70;68.40
28837;DHT22;50669;50.982;11.022;2024-03-08T15:32:48;18.70;68.40